sensor_id;sensor_type;location;lat;lon;timestamp;P1;durP1;ratioP1;P2;durP2;ratioP2
10847;SDS011;5477;48.806;9.154;2022-08-30T00:02:04;8.43;;;5.53;;
10847;SDS011;5477;48.806;9.154;2022-08-30T00:04:34;8.40;;;5.33;;
10847;SDS011;5477;48.806;9.154;2022-08-30T00:07:02;6.43;;;5.17;;
10847;SDS011;5477;48.806;9.154;2022-08-30T00:09:30;7.70;;;5.53;;
10847;SDS011;5477;48.806;9.154;2022-08-30T00:11:59;10.40;;;5.40;;
10847;SDS011;5477;48.806;9.154;2022-08-30T00:14:27;6.83;;;4.97;;
10847;SDS011;5477;48.806;9.154;2022-08-30T00:16:55;5.83;;;5.00;;
10847;SDS011;5477;48.806;9.154;2022-08-30T00:19:23;7.70;;;5.27;;
10847;SDS011;5477;48.806;9.154;2022-08-30T00:21:53;7.63;;;5.60;;
10847;SDS011;5477;48.806;9.154;2022-08-30T00:24:21;8.40;;;5.23;;
10847;SDS011;5477;48.806;9.154;2022-08-30T00:26:49;8.60;;;5.63;;
10847;SDS011;5477;48.806;9.154;2022-08-30T00:29:17;10.67;;;6.13;;
10847;SDS011;5477;48.806;9.154;2022-08-30T00:31:45;8.27;;;5.87;;
10847;SDS011;5477;48.806;9.154;2022-08-30T00:34:13;7.87;;;5.20;;
10847;SDS011;5477;48.806;9.154;2022-08-30T00:36:42;7.60;;;5.40;;
10847;SDS011;5477;48.806;9.154;2022-08-30T00:39:11;8.03;;;5.40;;
10847;SDS011;5477;48.806;9.154;2022-08-30T00:41:39;7.63;;;5.60;;
10847;SDS011;5477;48.806;9.154;2022-08-30T00:44:07;7.33;;;6.00;;
10847;SDS011;5477;48.806;9.154;2022-08-30T00:46:35;7.43;;;6.10;;
10847;SDS011;5477;48.806;9.154;2022-08-30T00:49:06;6.33;;;5.53;;
10847;SDS011;5477;48.806;9.154;2022-08-30T00:51:35;7.27;;;5.90;;
10847;SDS011;5477;48.806;9.154;2022-08-30T00:54:04;9.27;;;5.77;;
10847;SDS011;5477;48.806;9.154;2022-08-30T00:56:35;7.43;;;5.47;;
10847;SDS011;5477;48.806;9.154;2022-08-30T00:59:04;7.60;;;5.50;;
10847;SDS011;5477;48.806;9.154;2022-08-30T01:01:32;8.80;;;5.33;;
10847;SDS011;5477;48.806;9.154;2022-08-30T01:04:02;7.53;;;5.63;;
10847;SDS011;5477;48.806;9.154;2022-08-30T01:06:31;6.77;;;5.93;;
10847;SDS011;5477;48.806;9.154;2022-08-30T01:09:00;6.87;;;5.53;;
10847;SDS011;5477;48.806;9.154;2022-08-30T01:11:31;8.50;;;5.73;;
10847;SDS011;5477;48.806;9.154;2022-08-30T01:14:02;9.90;;;6.43;;
10847;SDS011;5477;48.806;9.154;2022-08-30T01:16:31;8.77;;;5.80;;
10847;SDS011;5477;48.806;9.154;2022-08-30T01:19:00;8.00;;;6.00;;
10847;SDS011;5477;48.806;9.154;2022-08-30T01:21:31;7.23;;;6.00;;
10847;SDS011;5477;48.806;9.154;2022-08-30T01:24:07;11.97;;;6.33;;
10847;SDS011;5477;48.806;9.154;2022-08-30T01:26:35;9.57;;;5.90;;
10847;SDS011;5477;48.806;9.154;2022-08-30T01:29:05;9.03;;;6.30;;
10847;SDS011;5477;48.806;9.154;2022-08-30T01:31:36;8.33;;;6.40;;
10847;SDS011;5477;48.806;9.154;2022-08-30T01:34:05;7.93;;;6.17;;
10847;SDS011;5477;48.806;9.154;2022-08-30T01:36:34;8.43;;;5.63;;
10847;SDS011;5477;48.806;9.154;2022-08-30T01:39:11;9.00;;;5.87;;
10847;SDS011;5477;48.806;9.154;2022-08-30T01:41:41;8.20;;;5.70;;
10847;SDS011;5477;48.806;9.154;2022-08-30T01:44:11;9.00;;;6.07;;
10847;SDS011;5477;48.806;9.154;2022-08-30T01:46:41;6.40;;;5.70;;
10847;SDS011;5477;48.806;9.154;2022-08-30T01:49:13;11.00;;;6.10;;
10847;SDS011;5477;48.806;9.154;2022-08-30T01:51:53;8.07;;;5.80;;
10847;SDS011;5477;48.806;9.154;2022-08-30T01:54:28;8.93;;;6.13;;
10847;SDS011;5477;48.806;9.154;2022-08-30T01:57:02;9.07;;;6.40;;
10847;SDS011;5477;48.806;9.154;2022-08-30T01:59:31;7.40;;;5.90;;
10847;SDS011;5477;48.806;9.154;2022-08-30T02:01:59;9.63;;;5.77;;
10847;SDS011;5477;48.806;9.154;2022-08-30T02:04:27;9.63;;;6.13;;
10847;SDS011;5477;48.806;9.154;2022-08-30T02:06:55;7.87;;;5.73;;
10847;SDS011;5477;48.806;9.154;2022-08-30T02:09:23;12.23;;;6.27;;
10847;SDS011;5477;48.806;9.154;2022-08-30T02:11:52;10.43;;;6.07;;
10847;SDS011;5477;48.806;9.154;2022-08-30T02:14:20;7.53;;;6.27;;
10847;SDS011;5477;48.806;9.154;2022-08-30T02:16:48;9.77;;;6.27;;
10847;SDS011;5477;48.806;9.154;2022-08-30T02:19:16;8.33;;;5.97;;
10847;SDS011;5477;48.806;9.154;2022-08-30T02:21:44;6.73;;;6.03;;
10847;SDS011;5477;48.806;9.154;2022-08-30T02:24:12;7.47;;;5.87;;
10847;SDS011;5477;48.806;9.154;2022-08-30T02:26:40;9.27;;;5.77;;
10847;SDS011;5477;48.806;9.154;2022-08-30T02:29:10;8.17;;;5.80;;
10847;SDS011;5477;48.806;9.154;2022-08-30T02:31:38;8.10;;;5.80;;
10847;SDS011;5477;48.806;9.154;2022-08-30T02:34:06;9.13;;;6.13;;
10847;SDS011;5477;48.806;9.154;2022-08-30T02:36:34;8.13;;;5.77;;
10847;SDS011;5477;48.806;9.154;2022-08-30T02:39:04;12.23;;;6.33;;
10847;SDS011;5477;48.806;9.154;2022-08-30T02:41:33;7.97;;;6.33;;
10847;SDS011;5477;48.806;9.154;2022-08-30T02:44:01;8.87;;;6.97;;
10847;SDS011;5477;48.806;9.154;2022-08-30T02:46:31;9.00;;;6.30;;
10847;SDS011;5477;48.806;9.154;2022-08-30T02:49:00;10.27;;;6.23;;
10847;SDS011;5477;48.806;9.154;2022-08-30T02:51:48;6.70;;;5.77;;
10847;SDS011;5477;48.806;9.154;2022-08-30T02:54:16;9.67;;;6.90;;
10847;SDS011;5477;48.806;9.154;2022-08-30T02:56:45;10.33;;;6.33;;
10847;SDS011;5477;48.806;9.154;2022-08-30T02:59:14;9.70;;;5.83;;
10847;SDS011;5477;48.806;9.154;2022-08-30T03:01:45;9.67;;;6.60;;
10847;SDS011;5477;48.806;9.154;2022-08-30T03:04:13;8.77;;;5.77;;
10847;SDS011;5477;48.806;9.154;2022-08-30T03:06:41;9.10;;;6.23;;
10847;SDS011;5477;48.806;9.154;2022-08-30T03:09:09;8.00;;;6.00;;
10847;SDS011;5477;48.806;9.154;2022-08-30T03:11:37;8.77;;;6.07;;
10847;SDS011;5477;48.806;9.154;2022-08-30T03:14:06;8.20;;;6.10;;
10847;SDS011;5477;48.806;9.154;2022-08-30T03:16:34;7.50;;;5.90;;
10847;SDS011;5477;48.806;9.154;2022-08-30T03:19:03;6.70;;;6.03;;
10847;SDS011;5477;48.806;9.154;2022-08-30T03:21:31;8.57;;;6.30;;
10847;SDS011;5477;48.806;9.154;2022-08-30T03:23:59;8.00;;;6.10;;
10847;SDS011;5477;48.806;9.154;2022-08-30T03:26:28;6.93;;;5.80;;
10847;SDS011;5477;48.806;9.154;2022-08-30T03:28:56;9.43;;;6.33;;
10847;SDS011;5477;48.806;9.154;2022-08-30T03:31:24;6.80;;;6.10;;
10847;SDS011;5477;48.806;9.154;2022-08-30T03:33:52;10.50;;;6.60;;
10847;SDS011;5477;48.806;9.154;2022-08-30T03:36:21;8.63;;;6.20;;
10847;SDS011;5477;48.806;9.154;2022-08-30T03:38:50;8.50;;;6.37;;
10847;SDS011;5477;48.806;9.154;2022-08-30T03:41:18;6.93;;;6.10;;
10847;SDS011;5477;48.806;9.154;2022-08-30T03:43:46;8.63;;;6.53;;
10847;SDS011;5477;48.806;9.154;2022-08-30T03:46:15;6.93;;;6.13;;
10847;SDS011;5477;48.806;9.154;2022-08-30T03:48:49;9.30;;;6.33;;
10847;SDS011;5477;48.806;9.154;2022-08-30T03:51:22;9.77;;;6.70;;
10847;SDS011;5477;48.806;9.154;2022-08-30T03:53:51;7.17;;;6.43;;
10847;SDS011;5477;48.806;9.154;2022-08-30T03:56:19;9.33;;;6.27;;
10847;SDS011;5477;48.806;9.154;2022-08-30T03:58:47;9.10;;;6.50;;
10847;SDS011;5477;48.806;9.154;2022-08-30T04:01:16;12.80;;;6.97;;
10847;SDS011;5477;48.806;9.154;2022-08-30T04:03:44;6.97;;;6.27;;
10847;SDS011;5477;48.806;9.154;2022-08-30T04:06:12;7.07;;;6.00;;
10847;SDS011;5477;48.806;9.154;2022-08-30T04:08:42;8.67;;;6.67;;
10847;SDS011;5477;48.806;9.154;2022-08-30T04:11:11;8.50;;;6.20;;
10847;SDS011;5477;48.806;9.154;2022-08-30T04:13:40;8.80;;;5.83;;
10847;SDS011;5477;48.806;9.154;2022-08-30T04:16:09;9.30;;;6.83;;
10847;SDS011;5477;48.806;9.154;2022-08-30T04:18:37;7.37;;;6.67;;
10847;SDS011;5477;48.806;9.154;2022-08-30T04:21:05;9.63;;;6.53;;
10847;SDS011;5477;48.806;9.154;2022-08-30T04:23:38;8.20;;;5.77;;
10847;SDS011;5477;48.806;9.154;2022-08-30T04:26:08;9.27;;;5.83;;
10847;SDS011;5477;48.806;9.154;2022-08-30T04:28:36;10.10;;;6.27;;
10847;SDS011;5477;48.806;9.154;2022-08-30T04:31:06;8.17;;;6.43;;
10847;SDS011;5477;48.806;9.154;2022-08-30T04:33:37;9.03;;;5.93;;
10847;SDS011;5477;48.806;9.154;2022-08-30T04:36:06;9.70;;;6.90;;
10847;SDS011;5477;48.806;9.154;2022-08-30T04:38:36;8.20;;;6.03;;
10847;SDS011;5477;48.806;9.154;2022-08-30T04:41:08;7.60;;;6.63;;
10847;SDS011;5477;48.806;9.154;2022-08-30T04:43:38;10.20;;;6.43;;
10847;SDS011;5477;48.806;9.154;2022-08-30T04:46:07;8.30;;;6.70;;
10847;SDS011;5477;48.806;9.154;2022-08-30T04:48:36;9.30;;;6.73;;
10847;SDS011;5477;48.806;9.154;2022-08-30T04:51:05;10.23;;;6.63;;
10847;SDS011;5477;48.806;9.154;2022-08-30T04:53:35;9.83;;;7.00;;
10847;SDS011;5477;48.806;9.154;2022-08-30T04:56:06;8.13;;;6.53;;
10847;SDS011;5477;48.806;9.154;2022-08-30T04:58:36;9.60;;;7.00;;
10847;SDS011;5477;48.806;9.154;2022-08-30T05:01:07;7.83;;;6.17;;
10847;SDS011;5477;48.806;9.154;2022-08-30T05:03:39;8.20;;;7.17;;
10847;SDS011;5477;48.806;9.154;2022-08-30T05:06:09;8.97;;;6.97;;
10847;SDS011;5477;48.806;9.154;2022-08-30T05:08:38;10.07;;;7.00;;
10847;SDS011;5477;48.806;9.154;2022-08-30T05:11:11;9.57;;;6.47;;
10847;SDS011;5477;48.806;9.154;2022-08-30T05:13:42;10.50;;;6.87;;
10847;SDS011;5477;48.806;9.154;2022-08-30T05:16:12;7.90;;;7.07;;
10847;SDS011;5477;48.806;9.154;2022-08-30T05:18:43;7.03;;;6.33;;
10847;SDS011;5477;48.806;9.154;2022-08-30T05:21:13;8.20;;;6.20;;
10847;SDS011;5477;48.806;9.154;2022-08-30T05:23:42;9.30;;;6.63;;
10847;SDS011;5477;48.806;9.154;2022-08-30T05:26:12;9.73;;;6.57;;
10847;SDS011;5477;48.806;9.154;2022-08-30T05:28:43;11.80;;;6.50;;
10847;SDS011;5477;48.806;9.154;2022-08-30T05:31:15;7.77;;;6.53;;
10847;SDS011;5477;48.806;9.154;2022-08-30T05:33:46;9.83;;;6.43;;
10847;SDS011;5477;48.806;9.154;2022-08-30T05:36:16;8.93;;;5.77;;
10847;SDS011;5477;48.806;9.154;2022-08-30T05:38:45;8.77;;;6.50;;
10847;SDS011;5477;48.806;9.154;2022-08-30T05:41:13;9.40;;;6.63;;
10847;SDS011;5477;48.806;9.154;2022-08-30T05:43:41;8.00;;;6.20;;
10847;SDS011;5477;48.806;9.154;2022-08-30T05:46:11;8.17;;;6.47;;
10847;SDS011;5477;48.806;9.154;2022-08-30T05:48:44;8.77;;;6.30;;
10847;SDS011;5477;48.806;9.154;2022-08-30T05:51:13;7.50;;;6.63;;
10847;SDS011;5477;48.806;9.154;2022-08-30T05:53:45;10.30;;;6.10;;
10847;SDS011;5477;48.806;9.154;2022-08-30T05:56:16;8.07;;;6.53;;
10847;SDS011;5477;48.806;9.154;2022-08-30T05:58:46;9.67;;;6.50;;
10847;SDS011;5477;48.806;9.154;2022-08-30T06:01:19;9.47;;;6.70;;
10847;SDS011;5477;48.806;9.154;2022-08-30T06:03:49;8.97;;;6.60;;
10847;SDS011;5477;48.806;9.154;2022-08-30T06:06:17;10.70;;;6.30;;
10847;SDS011;5477;48.806;9.154;2022-08-30T06:08:45;6.90;;;6.20;;
10847;SDS011;5477;48.806;9.154;2022-08-30T06:11:14;10.47;;;6.30;;
10847;SDS011;5477;48.806;9.154;2022-08-30T06:13:45;10.07;;;6.87;;
10847;SDS011;5477;48.806;9.154;2022-08-30T06:16:14;8.90;;;6.43;;
10847;SDS011;5477;48.806;9.154;2022-08-30T06:18:45;10.67;;;6.17;;
10847;SDS011;5477;48.806;9.154;2022-08-30T06:21:14;8.93;;;7.10;;
10847;SDS011;5477;48.806;9.154;2022-08-30T06:23:43;9.63;;;6.10;;
10847;SDS011;5477;48.806;9.154;2022-08-30T06:26:11;7.33;;;6.63;;
10847;SDS011;5477;48.806;9.154;2022-08-30T06:28:39;14.47;;;7.77;;
10847;SDS011;5477;48.806;9.154;2022-08-30T06:31:09;13.03;;;8.60;;
10847;SDS011;5477;48.806;9.154;2022-08-30T06:33:39;15.57;;;8.20;;
10847;SDS011;5477;48.806;9.154;2022-08-30T06:36:09;16.73;;;9.23;;
10847;SDS011;5477;48.806;9.154;2022-08-30T06:38:39;16.77;;;9.23;;
10847;SDS011;5477;48.806;9.154;2022-08-30T06:41:08;12.77;;;9.27;;
10847;SDS011;5477;48.806;9.154;2022-08-30T06:43:38;11.97;;;9.43;;
10847;SDS011;5477;48.806;9.154;2022-08-30T06:46:14;16.80;;;9.27;;
10847;SDS011;5477;48.806;9.154;2022-08-30T06:48:44;18.43;;;9.73;;
10847;SDS011;5477;48.806;9.154;2022-08-30T06:51:19;14.43;;;9.00;;
10847;SDS011;5477;48.806;9.154;2022-08-30T06:53:48;11.50;;;8.57;;
10847;SDS011;5477;48.806;9.154;2022-08-30T06:56:17;15.90;;;8.77;;
10847;SDS011;5477;48.806;9.154;2022-08-30T06:58:47;12.97;;;8.30;;
10847;SDS011;5477;48.806;9.154;2022-08-30T07:01:17;11.63;;;8.20;;
10847;SDS011;5477;48.806;9.154;2022-08-30T07:03:47;12.33;;;8.43;;
10847;SDS011;5477;48.806;9.154;2022-08-30T07:06:16;16.80;;;8.20;;
10847;SDS011;5477;48.806;9.154;2022-08-30T07:08:46;14.13;;;8.80;;
10847;SDS011;5477;48.806;9.154;2022-08-30T07:11:26;11.07;;;8.03;;
10847;SDS011;5477;48.806;9.154;2022-08-30T07:13:55;11.03;;;7.53;;
10847;SDS011;5477;48.806;9.154;2022-08-30T07:16:24;10.77;;;8.13;;
10847;SDS011;5477;48.806;9.154;2022-08-30T07:18:52;8.83;;;7.40;;
10847;SDS011;5477;48.806;9.154;2022-08-30T07:21:21;15.07;;;7.73;;
10847;SDS011;5477;48.806;9.154;2022-08-30T07:23:53;10.13;;;7.60;;
10847;SDS011;5477;48.806;9.154;2022-08-30T07:26:23;10.97;;;7.37;;
10847;SDS011;5477;48.806;9.154;2022-08-30T07:28:54;8.43;;;6.90;;
10847;SDS011;5477;48.806;9.154;2022-08-30T07:31:22;8.83;;;6.73;;
10847;SDS011;5477;48.806;9.154;2022-08-30T07:33:51;7.80;;;6.33;;
10847;SDS011;5477;48.806;9.154;2022-08-30T07:36:19;11.33;;;7.30;;
10847;SDS011;5477;48.806;9.154;2022-08-30T07:38:48;12.57;;;7.07;;
10847;SDS011;5477;48.806;9.154;2022-08-30T07:41:19;12.87;;;7.17;;
10847;SDS011;5477;48.806;9.154;2022-08-30T07:43:49;10.47;;;7.10;;
10847;SDS011;5477;48.806;9.154;2022-08-30T07:46:17;11.50;;;7.43;;
10847;SDS011;5477;48.806;9.154;2022-08-30T07:48:46;7.80;;;6.57;;
10847;SDS011;5477;48.806;9.154;2022-08-30T07:51:15;14.63;;;8.63;;
10847;SDS011;5477;48.806;9.154;2022-08-30T07:53:45;8.43;;;6.30;;
10847;SDS011;5477;48.806;9.154;2022-08-30T07:56:13;10.10;;;6.20;;
10847;SDS011;5477;48.806;9.154;2022-08-30T07:58:44;11.83;;;6.40;;
10847;SDS011;5477;48.806;9.154;2022-08-30T08:01:12;7.90;;;6.67;;
10847;SDS011;5477;48.806;9.154;2022-08-30T08:03:41;9.87;;;6.50;;
10847;SDS011;5477;48.806;9.154;2022-08-30T08:06:11;12.27;;;6.77;;
10847;SDS011;5477;48.806;9.154;2022-08-30T08:08:40;8.40;;;6.13;;
10847;SDS011;5477;48.806;9.154;2022-08-30T08:11:11;8.67;;;5.90;;
10847;SDS011;5477;48.806;9.154;2022-08-30T08:13:41;10.20;;;5.87;;
10847;SDS011;5477;48.806;9.154;2022-08-30T08:16:20;8.37;;;6.27;;
10847;SDS011;5477;48.806;9.154;2022-08-30T08:18:49;10.43;;;6.30;;
10847;SDS011;5477;48.806;9.154;2022-08-30T08:21:18;7.23;;;6.13;;
10847;SDS011;5477;48.806;9.154;2022-08-30T08:23:47;8.87;;;6.80;;
10847;SDS011;5477;48.806;9.154;2022-08-30T08:26:15;8.60;;;6.13;;
10847;SDS011;5477;48.806;9.154;2022-08-30T08:28:45;7.07;;;6.33;;
10847;SDS011;5477;48.806;9.154;2022-08-30T08:31:14;10.27;;;6.27;;
10847;SDS011;5477;48.806;9.154;2022-08-30T08:33:43;10.63;;;6.53;;
10847;SDS011;5477;48.806;9.154;2022-08-30T08:36:11;9.67;;;6.40;;
10847;SDS011;5477;48.806;9.154;2022-08-30T08:38:39;9.50;;;6.60;;
10847;SDS011;5477;48.806;9.154;2022-08-30T08:41:10;8.37;;;6.20;;
10847;SDS011;5477;48.806;9.154;2022-08-30T08:43:48;10.77;;;6.47;;
10847;SDS011;5477;48.806;9.154;2022-08-30T08:46:18;10.60;;;6.10;;
10847;SDS011;5477;48.806;9.154;2022-08-30T08:48:55;10.57;;;6.30;;
10847;SDS011;5477;48.806;9.154;2022-08-30T08:51:29;8.73;;;6.13;;
10847;SDS011;5477;48.806;9.154;2022-08-30T08:54:18;6.77;;;5.43;;
10847;SDS011;5477;48.806;9.154;2022-08-30T08:56:51;6.20;;;5.60;;
10847;SDS011;5477;48.806;9.154;2022-08-30T08:59:20;8.13;;;5.10;;
10847;SDS011;5477;48.806;9.154;2022-08-30T09:01:49;6.33;;;5.27;;
10847;SDS011;5477;48.806;9.154;2022-08-30T09:04:18;6.07;;;5.40;;
10847;SDS011;5477;48.806;9.154;2022-08-30T09:06:51;7.27;;;5.43;;
10847;SDS011;5477;48.806;9.154;2022-08-30T09:09:22;7.77;;;5.10;;
10847;SDS011;5477;48.806;9.154;2022-08-30T09:11:54;6.87;;;4.47;;
10847;SDS011;5477;48.806;9.154;2022-08-30T09:14:24;6.90;;;4.90;;
10847;SDS011;5477;48.806;9.154;2022-08-30T09:16:56;6.27;;;4.93;;
10847;SDS011;5477;48.806;9.154;2022-08-30T09:19:55;4.87;;;4.37;;
10847;SDS011;5477;48.806;9.154;2022-08-30T09:22:30;5.37;;;4.53;;
10847;SDS011;5477;48.806;9.154;2022-08-30T09:25:00;5.60;;;4.40;;
10847;SDS011;5477;48.806;9.154;2022-08-30T09:27:32;9.23;;;5.27;;
10847;SDS011;5477;48.806;9.154;2022-08-30T09:30:05;6.77;;;5.23;;
10847;SDS011;5477;48.806;9.154;2022-08-30T09:32:41;6.40;;;4.50;;
10847;SDS011;5477;48.806;9.154;2022-08-30T09:35:11;5.37;;;4.70;;
10847;SDS011;5477;48.806;9.154;2022-08-30T09:37:45;4.97;;;4.47;;
10847;SDS011;5477;48.806;9.154;2022-08-30T09:40:26;5.43;;;4.93;;
10847;SDS011;5477;48.806;9.154;2022-08-30T09:43:03;5.90;;;4.70;;
10847;SDS011;5477;48.806;9.154;2022-08-30T09:45:36;8.23;;;4.60;;
10847;SDS011;5477;48.806;9.154;2022-08-30T09:51:08;5.17;;;4.30;;
10847;SDS011;5477;48.806;9.154;2022-08-30T09:53:59;8.10;;;4.57;;
10847;SDS011;5477;48.806;9.154;2022-08-30T09:56:45;4.93;;;4.40;;
10847;SDS011;5477;48.806;9.154;2022-08-30T10:02:28;5.60;;;4.80;;
10847;SDS011;5477;48.806;9.154;2022-08-30T10:05:15;7.30;;;4.47;;
10847;SDS011;5477;48.806;9.154;2022-08-30T10:07:51;4.72;;;4.25;;
10847;SDS011;5477;48.806;9.154;2022-08-30T10:10:29;6.00;;;4.35;;
10847;SDS011;5477;48.806;9.154;2022-08-30T10:13:03;5.68;;;4.50;;
10847;SDS011;5477;48.806;9.154;2022-08-30T10:15:48;6.82;;;4.50;;
10847;SDS011;5477;48.806;9.154;2022-08-30T10:18:23;5.70;;;4.40;;
10847;SDS011;5477;48.806;9.154;2022-08-30T10:20:58;6.47;;;4.38;;
10847;SDS011;5477;48.806;9.154;2022-08-30T10:23:32;6.03;;;4.63;;
10847;SDS011;5477;48.806;9.154;2022-08-30T10:26:06;5.90;;;4.35;;
10847;SDS011;5477;48.806;9.154;2022-08-30T10:28:40;4.68;;;4.28;;
10847;SDS011;5477;48.806;9.154;2022-08-30T10:31:14;6.45;;;4.70;;
10847;SDS011;5477;48.806;9.154;2022-08-30T10:33:52;6.35;;;4.45;;
10847;SDS011;5477;48.806;9.154;2022-08-30T10:36:25;5.15;;;4.38;;
10847;SDS011;5477;48.806;9.154;2022-08-30T10:38:58;6.00;;;4.05;;
10847;SDS011;5477;48.806;9.154;2022-08-30T10:41:32;4.95;;;4.22;;
10847;SDS011;5477;48.806;9.154;2022-08-30T10:44:05;6.55;;;4.63;;
10847;SDS011;5477;48.806;9.154;2022-08-30T10:46:38;5.03;;;4.28;;
10847;SDS011;5477;48.806;9.154;2022-08-30T10:49:25;4.30;;;3.50;;
10847;SDS011;5477;48.806;9.154;2022-08-30T10:51:57;4.30;;;3.90;;
10847;SDS011;5477;48.806;9.154;2022-08-30T10:54:34;5.40;;;4.03;;
10847;SDS011;5477;48.806;9.154;2022-08-30T10:57:08;5.88;;;4.07;;
10847;SDS011;5477;48.806;9.154;2022-08-30T10:59:37;4.93;;;4.22;;
10847;SDS011;5477;48.806;9.154;2022-08-30T11:02:18;4.30;;;3.90;;
10847;SDS011;5477;48.806;9.154;2022-08-30T11:05:18;5.07;;;4.15;;
10847;SDS011;5477;48.806;9.154;2022-08-30T11:07:58;5.65;;;3.83;;
10847;SDS011;5477;48.806;9.154;2022-08-30T11:10:49;4.35;;;3.95;;
10847;SDS011;5477;48.806;9.154;2022-08-30T11:13:26;4.82;;;3.83;;
10847;SDS011;5477;48.806;9.154;2022-08-30T11:15:58;4.57;;;3.78;;
10847;SDS011;5477;48.806;9.154;2022-08-30T11:18:29;5.45;;;3.75;;
10847;SDS011;5477;48.806;9.154;2022-08-30T11:21:17;6.05;;;3.80;;
10847;SDS011;5477;48.806;9.154;2022-08-30T11:23:59;4.43;;;3.83;;
10847;SDS011;5477;48.806;9.154;2022-08-30T11:26:53;5.38;;;3.90;;
10847;SDS011;5477;48.806;9.154;2022-08-30T11:29:31;4.60;;;3.88;;
10847;SDS011;5477;48.806;9.154;2022-08-30T11:32:19;4.20;;;3.83;;
10847;SDS011;5477;48.806;9.154;2022-08-30T11:35:05;3.95;;;3.55;;
10847;SDS011;5477;48.806;9.154;2022-08-30T11:37:39;4.28;;;3.85;;
10847;SDS011;5477;48.806;9.154;2022-08-30T11:46:35;5.82;;;3.90;;
10847;SDS011;5477;48.806;9.154;2022-08-30T11:52:08;5.93;;;3.90;;
10847;SDS011;5477;48.806;9.154;2022-08-30T11:54:59;4.55;;;3.70;;
10847;SDS011;5477;48.806;9.154;2022-08-30T11:57:41;4.15;;;3.72;;
10847;SDS011;5477;48.806;9.154;2022-08-30T12:00:25;4.32;;;3.70;;
10847;SDS011;5477;48.806;9.154;2022-08-30T12:03:00;4.85;;;4.00;;
10847;SDS011;5477;48.806;9.154;2022-08-30T12:05:51;4.22;;;3.80;;
10847;SDS011;5477;48.806;9.154;2022-08-30T12:14:39;6.60;;;3.90;;
10847;SDS011;5477;48.806;9.154;2022-08-30T12:20:42;5.55;;;3.97;;
10847;SDS011;5477;48.806;9.154;2022-08-30T12:23:16;4.25;;;3.85;;
10847;SDS011;5477;48.806;9.154;2022-08-30T12:25:46;4.32;;;3.92;;
10847;SDS011;5477;48.806;9.154;2022-08-30T12:28:19;6.22;;;4.60;;
10847;SDS011;5477;48.806;9.154;2022-08-30T12:30:49;5.72;;;4.15;;
10847;SDS011;5477;48.806;9.154;2022-08-30T12:33:23;7.95;;;3.97;;
10847;SDS011;5477;48.806;9.154;2022-08-30T12:36:05;4.43;;;4.03;;
10847;SDS011;5477;48.806;9.154;2022-08-30T12:38:39;6.72;;;4.53;;
10847;SDS011;5477;48.806;9.154;2022-08-30T12:41:07;4.82;;;4.03;;
10847;SDS011;5477;48.806;9.154;2022-08-30T12:43:48;5.32;;;3.90;;
10847;SDS011;5477;48.806;9.154;2022-08-30T12:46:19;4.50;;;3.60;;
10847;SDS011;5477;48.806;9.154;2022-08-30T12:48:48;5.70;;;4.00;;
10847;SDS011;5477;48.806;9.154;2022-08-30T12:51:27;5.18;;;3.90;;
10847;SDS011;5477;48.806;9.154;2022-08-30T12:54:08;3.90;;;3.58;;
10847;SDS011;5477;48.806;9.154;2022-08-30T12:56:52;5.40;;;3.97;;
10847;SDS011;5477;48.806;9.154;2022-08-30T12:59:42;3.58;;;3.22;;
10847;SDS011;5477;48.806;9.154;2022-08-30T13:02:23;6.28;;;3.70;;
10847;SDS011;5477;48.806;9.154;2022-08-30T13:04:54;4.95;;;3.70;;
10847;SDS011;5477;48.806;9.154;2022-08-30T13:07:23;5.35;;;3.72;;
10847;SDS011;5477;48.806;9.154;2022-08-30T13:10:05;3.83;;;3.53;;
10847;SDS011;5477;48.806;9.154;2022-08-30T13:15:40;4.82;;;3.85;;
10847;SDS011;5477;48.806;9.154;2022-08-30T13:23:51;3.95;;;3.50;;
10847;SDS011;5477;48.806;9.154;2022-08-30T13:26:22;4.80;;;3.53;;
10847;SDS011;5477;48.806;9.154;2022-08-30T13:28:53;4.07;;;3.30;;
10847;SDS011;5477;48.806;9.154;2022-08-30T13:31:25;3.72;;;3.42;;
10847;SDS011;5477;48.806;9.154;2022-08-30T13:33:55;4.05;;;3.28;;
10847;SDS011;5477;48.806;9.154;2022-08-30T13:36:24;4.57;;;3.40;;
10847;SDS011;5477;48.806;9.154;2022-08-30T13:38:56;3.65;;;3.35;;
10847;SDS011;5477;48.806;9.154;2022-08-30T13:41:25;4.10;;;3.30;;
10847;SDS011;5477;48.806;9.154;2022-08-30T13:43:59;3.80;;;3.40;;
10847;SDS011;5477;48.806;9.154;2022-08-30T13:46:40;3.95;;;3.25;;
10847;SDS011;5477;48.806;9.154;2022-08-30T13:49:20;4.88;;;3.40;;
10847;SDS011;5477;48.806;9.154;2022-08-30T13:52:10;6.30;;;3.47;;
10847;SDS011;5477;48.806;9.154;2022-08-30T13:54:48;3.47;;;3.17;;
10847;SDS011;5477;48.806;9.154;2022-08-30T13:57:17;3.38;;;3.08;;
10847;SDS011;5477;48.806;9.154;2022-08-30T14:00:08;4.65;;;3.40;;
10847;SDS011;5477;48.806;9.154;2022-08-30T14:02:44;4.72;;;3.13;;
10847;SDS011;5477;48.806;9.154;2022-08-30T14:05:20;3.90;;;3.50;;
10847;SDS011;5477;48.806;9.154;2022-08-30T14:08:10;3.88;;;3.58;;
10847;SDS011;5477;48.806;9.154;2022-08-30T14:11:00;3.95;;;3.55;;
10847;SDS011;5477;48.806;9.154;2022-08-30T14:13:30;4.45;;;3.50;;
10847;SDS011;5477;48.806;9.154;2022-08-30T14:15:59;3.85;;;3.55;;
10847;SDS011;5477;48.806;9.154;2022-08-30T14:18:50;3.70;;;3.40;;
10847;SDS011;5477;48.806;9.154;2022-08-30T14:21:19;5.57;;;3.67;;
10847;SDS011;5477;48.806;9.154;2022-08-30T14:23:50;5.15;;;3.80;;
10847;SDS011;5477;48.806;9.154;2022-08-30T14:26:19;4.38;;;3.85;;
10847;SDS011;5477;48.806;9.154;2022-08-30T14:28:51;4.25;;;3.80;;
10847;SDS011;5477;48.806;9.154;2022-08-30T14:31:19;5.25;;;3.70;;
10847;SDS011;5477;48.806;9.154;2022-08-30T14:33:47;5.38;;;3.90;;
10847;SDS011;5477;48.806;9.154;2022-08-30T14:36:17;6.10;;;3.53;;
10847;SDS011;5477;48.806;9.154;2022-08-30T14:38:46;5.18;;;4.00;;
10847;SDS011;5477;48.806;9.154;2022-08-30T14:41:14;3.50;;;3.20;;
10847;SDS011;5477;48.806;9.154;2022-08-30T14:43:42;5.05;;;3.80;;
10847;SDS011;5477;48.806;9.154;2022-08-30T14:46:10;7.28;;;3.45;;
10847;SDS011;5477;48.806;9.154;2022-08-30T14:48:38;4.43;;;4.00;;
10847;SDS011;5477;48.806;9.154;2022-08-30T14:51:11;4.78;;;3.63;;
10847;SDS011;5477;48.806;9.154;2022-08-30T14:53:43;4.25;;;3.67;;
10847;SDS011;5477;48.806;9.154;2022-08-30T14:56:12;10.02;;;4.35;;
10847;SDS011;5477;48.806;9.154;2022-08-30T14:58:46;4.63;;;4.03;;
10847;SDS011;5477;48.806;9.154;2022-08-30T15:01:15;5.07;;;4.00;;
10847;SDS011;5477;48.806;9.154;2022-08-30T15:03:43;4.28;;;3.78;;
10847;SDS011;5477;48.806;9.154;2022-08-30T15:06:11;6.65;;;3.85;;
10847;SDS011;5477;48.806;9.154;2022-08-30T15:08:42;5.70;;;4.20;;
10847;SDS011;5477;48.806;9.154;2022-08-30T15:11:14;5.13;;;3.97;;
10847;SDS011;5477;48.806;9.154;2022-08-30T15:13:45;4.93;;;3.90;;
10847;SDS011;5477;48.806;9.154;2022-08-30T15:16:14;5.30;;;4.15;;
10847;SDS011;5477;48.806;9.154;2022-08-30T15:18:44;6.28;;;4.00;;
10847;SDS011;5477;48.806;9.154;2022-08-30T15:21:13;3.85;;;3.55;;
10847;SDS011;5477;48.806;9.154;2022-08-30T15:23:49;4.10;;;3.80;;
10847;SDS011;5477;48.806;9.154;2022-08-30T15:26:17;6.10;;;3.60;;
10847;SDS011;5477;48.806;9.154;2022-08-30T15:28:46;4.53;;;3.67;;
10847;SDS011;5477;48.806;9.154;2022-08-30T15:31:14;6.80;;;3.72;;
10847;SDS011;5477;48.806;9.154;2022-08-30T15:33:42;5.90;;;3.88;;
10847;SDS011;5477;48.806;9.154;2022-08-30T15:36:11;3.97;;;3.40;;
10847;SDS011;5477;48.806;9.154;2022-08-30T15:38:39;3.92;;;3.53;;
10847;SDS011;5477;48.806;9.154;2022-08-30T15:41:10;4.40;;;3.60;;
10847;SDS011;5477;48.806;9.154;2022-08-30T15:43:39;5.00;;;3.78;;
10847;SDS011;5477;48.806;9.154;2022-08-30T15:46:17;4.72;;;3.72;;
10847;SDS011;5477;48.806;9.154;2022-08-30T15:48:48;4.10;;;3.60;;
10847;SDS011;5477;48.806;9.154;2022-08-30T15:51:18;5.45;;;4.03;;
10847;SDS011;5477;48.806;9.154;2022-08-30T15:53:46;5.63;;;4.10;;
10847;SDS011;5477;48.806;9.154;2022-08-30T15:56:16;5.75;;;4.18;;
10847;SDS011;5477;48.806;9.154;2022-08-30T15:58:45;5.40;;;4.47;;
10847;SDS011;5477;48.806;9.154;2022-08-30T16:01:13;4.93;;;3.95;;
10847;SDS011;5477;48.806;9.154;2022-08-30T16:03:48;4.97;;;3.88;;